createdAt,value
2018-12-24T00:01:47.343Z,100436.66
2018-12-24T00:04:31.698Z,100450.95
2018-12-24T00:07:23.074Z,100448.95
2018-12-24T00:10:07.374Z,100450.68
2018-12-24T00:12:58.787Z,100463.01
2018-12-24T00:15:43.207Z,100465.56
2018-12-24T00:18:34.587Z,100460.44
2018-12-24T00:21:18.826Z,100466.55
2018-12-24T00:24:03.200Z,100480.45
2018-12-24T00:26:54.582Z,100490.92
2018-12-24T00:29:38.261Z,100479.24
2018-12-24T00:32:29.602Z,100476.30
2018-12-24T00:35:13.736Z,100496.84
2018-12-24T00:38:05.186Z,100503.88
2018-12-24T00:40:48.669Z,100512.06
2018-12-24T00:43:32.665Z,100521.76
2018-12-24T00:46:24.070Z,100527.42
2018-12-24T00:49:08.117Z,100529.07
2018-12-24T00:51:59.499Z,100535.70
2018-12-24T00:54:43.904Z,100546.67
2018-12-24T00:57:35.276Z,100555.43
2018-12-24T01:00:18.951Z,100558.23
2018-12-24T01:03:10.365Z,100567.97
2018-12-24T01:05:54.003Z,100569.77
2018-12-24T01:08:45.396Z,100582.45
2018-12-24T01:11:36.755Z,100582.56
2018-12-24T01:14:20.943Z,100587.30
2018-12-24T01:17:12.303Z,100596.90
2018-12-24T01:19:55.863Z,100606.48
2018-12-24T01:22:47.218Z,100614.58
2018-12-24T01:25:31.035Z,100621.51
2018-12-24T01:28:22.468Z,100630.56
2018-12-24T01:31:13.830Z,100632.50
2018-12-24T01:33:58.100Z,100639.52
2018-12-24T01:36:51.101Z,100649.12
2018-12-24T01:39:35.381Z,100657.00
2018-12-24T01:42:33.318Z,100656.38
2018-12-24T01:45:32.958Z,100670.00
2018-12-24T01:48:24.368Z,100679.20
2018-12-24T01:51:07.918Z,100681.77
2018-12-24T01:53:59.305Z,100680.95
2018-12-24T01:56:43.619Z,100689.62
2018-12-24T01:59:34.999Z,100695.34
2018-12-24T02:02:07.596Z,100715.78
2018-12-24T02:04:58.971Z,100711.81
2018-12-24T02:07:43.224Z,100715.69
2018-12-24T02:10:26.723Z,100716.98
2018-12-24T02:13:18.118Z,100721.80
2018-12-24T02:16:02.548Z,100731.39
2018-12-24T02:18:53.939Z,100734.26
2018-12-24T02:21:37.444Z,100744.33
2018-12-24T02:24:28.796Z,100743.41
2018-12-24T02:27:12.458Z,100749.38
2018-12-24T02:30:03.889Z,100752.05
2018-12-24T02:32:47.769Z,100759.51
2018-12-24T02:35:41.611Z,100766.96
2018-12-24T02:38:26.053Z,100766.09
2018-12-24T02:41:17.406Z,100777.78
2018-12-24T02:44:01.645Z,100777.25
2018-12-24T02:46:53.040Z,100777.25
2018-12-24T02:49:37.285Z,100777.30
2018-12-24T02:52:28.699Z,100785.45
2018-12-24T02:55:12.465Z,100787.28
2018-12-24T02:58:03.834Z,100801.24
2018-12-24T03:00:47.588Z,100802.38
2018-12-24T03:03:39.011Z,100814.63
2018-12-24T03:06:23.154Z,100813.37
2018-12-24T03:09:14.845Z,100825.09
2018-12-24T03:11:58.599Z,100832.04
2018-12-24T03:14:50.007Z,100829.38
2018-12-24T03:17:33.962Z,100836.41
2018-12-24T03:20:25.339Z,100844.25
2018-12-24T03:23:09.125Z,100838.20
2018-12-24T03:26:00.472Z,100843.42
2018-12-24T03:28:44.047Z,100842.55
2018-12-24T03:31:35.460Z,100848.58
2018-12-24T03:34:19.145Z,100855.12
2018-12-24T03:37:10.529Z,100857.73
2018-12-24T03:39:54.520Z,100861.23
2018-12-24T03:42:45.910Z,100862.01
2018-12-24T03:45:30.252Z,100871.22
2018-12-24T03:48:21.691Z,100879.42
2018-12-24T03:51:05.207Z,100878.16
2018-12-24T03:53:56.564Z,100884.30
2018-12-24T03:56:40.232Z,100903.06
2018-12-24T03:59:31.664Z,100908.73
2018-12-24T04:02:15.802Z,100906.11
2018-12-24T04:05:07.184Z,100911.35
2018-12-24T04:07:51.378Z,100928.80
2018-12-24T04:10:42.750Z,100930.47
2018-12-24T04:13:27.075Z,100928.33
2018-12-24T04:16:18.411Z,100932.61
2018-12-24T04:19:09.821Z,100933.91
2018-12-24T04:21:54.124Z,100944.30
2018-12-24T04:24:45.513Z,100946.97
2018-12-24T04:27:29.047Z,100950.02
2018-12-24T04:30:20.379Z,100965.25
2018-12-24T04:33:03.999Z,100973.11
2018-12-24T04:35:55.374Z,100983.10
2018-12-24T04:38:39.521Z,100979.18
2018-12-24T04:41:30.891Z,100980.48
2018-12-24T04:44:14.937Z,100987.90
2018-12-24T04:47:06.318Z,100993.58
2018-12-24T04:49:50.185Z,101006.59
2018-12-24T04:52:34.113Z,100995.44
2018-12-24T04:55:25.489Z,101011.16
2018-12-24T04:58:16.854Z,101012.30
2018-12-24T05:01:01.121Z,101020.23
2018-12-24T05:03:52.494Z,101029.84
2018-12-24T05:06:36.228Z,101034.72
2018-12-24T05:09:27.625Z,101036.93
2018-12-24T05:12:30.841Z,101050.46
2018-12-24T05:15:22.224Z,101058.28
2018-12-24T05:18:06.471Z,101068.27
2018-12-24T05:20:57.830Z,101073.15
2018-12-24T05:23:41.621Z,101081.91
2018-12-24T05:29:16.260Z,101095.88
2018-12-24T05:32:01.796Z,101108.56
2018-12-24T05:34:53.161Z,101117.25
2018-12-24T05:37:36.748Z,101129.10
2018-12-24T05:40:28.087Z,101142.19
2018-12-24T05:43:11.923Z,101144.38
2018-12-24T05:46:03.304Z,101144.34
2018-12-24T05:48:46.875Z,101156.52
2018-12-24T05:51:38.262Z,101160.92
2018-12-24T05:54:22.125Z,101163.98
2018-12-24T05:57:37.867Z,101173.14
2018-12-24T06:00:22.090Z,101173.61
2018-12-24T06:03:13.447Z,101185.33
2018-12-24T06:06:04.969Z,101199.84
2018-12-24T06:08:48.331Z,101216.45
2018-12-24T06:11:31.030Z,101223.87
2018-12-24T06:14:15.391Z,101232.16
2018-12-24T06:19:59.352Z,101252.64
2018-12-24T06:22:50.712Z,101268.78
2018-12-24T06:25:42.047Z,101271.42
2018-12-24T06:28:26.207Z,101272.38
2018-12-24T06:31:17.589Z,101275.87
2018-12-24T06:34:01.815Z,101289.83
2018-12-24T06:36:53.169Z,101290.67
2018-12-24T06:39:37.299Z,101302.84
2018-12-24T06:42:28.690Z,101305.92
2018-12-24T06:45:12.473Z,101322.03
2018-12-24T06:48:03.808Z,101329.40
2018-12-24T06:50:48.326Z,101337.69
2018-12-24T06:53:31.855Z,101336.05
2018-12-24T06:56:23.199Z,101335.61
2018-12-24T06:59:07.226Z,101339.98
2018-12-24T07:01:58.604Z,101342.07
2018-12-24T07:05:01.713Z,101347.83
2018-12-24T07:07:53.094Z,101357.01
2018-12-24T07:10:36.661Z,101354.31
2018-12-24T07:13:28.000Z,101361.81
2018-12-24T07:16:11.790Z,101362.58
2018-12-24T07:19:03.213Z,101366.14
2018-12-24T07:21:46.759Z,101366.66
2018-12-24T07:24:39.784Z,101365.78
2018-12-24T07:27:43.347Z,101373.20
2018-12-24T07:30:34.787Z,101384.55
2018-12-24T07:33:26.561Z,101395.92
2018-12-24T07:36:17.909Z,101402.48
2018-12-24T07:39:01.760Z,101396.84
2018-12-24T07:41:53.071Z,101403.89
2018-12-24T07:44:56.366Z,101407.76
2018-12-24T07:47:47.740Z,101416.55
2018-12-24T07:50:31.240Z,101418.30
2018-12-24T07:53:22.615Z,101423.09
2018-12-24T07:56:06.768Z,101421.78
2018-12-24T07:58:58.152Z,101427.86
2018-12-24T08:01:42.283Z,101431.80
2018-12-24T08:04:33.675Z,101444.13
2018-12-24T08:07:17.477Z,101439.73
2018-12-24T08:10:08.827Z,101439.33
2018-12-24T08:12:52.716Z,101432.39
2018-12-24T08:15:44.065Z,101443.21
2018-12-24T08:18:27.580Z,101442.80
2018-12-24T08:24:14.996Z,101463.72
2018-12-24T08:27:06.431Z,101470.14
2018-12-24T08:30:00.240Z,101472.31
2018-12-24T08:35:55.742Z,101491.41
2018-12-24T08:38:40.509Z,101492.11
2018-12-24T08:44:42.905Z,101522.31
2018-12-24T08:47:34.437Z,101549.28
2018-12-24T08:50:18.638Z,101550.19
2018-12-24T08:53:11.122Z,101558.87
2018-12-24T08:55:55.332Z,101568.71
2018-12-24T08:58:46.810Z,101580.48
2018-12-24T09:01:30.739Z,101583.80
2018-12-24T09:04:22.150Z,101600.69
2018-12-24T09:07:06.430Z,101613.55
2018-12-24T09:09:57.825Z,101629.03
2018-12-24T09:12:42.087Z,101630.55
2018-12-24T09:15:33.918Z,101630.58
2018-12-24T09:18:18.146Z,101651.83
2018-12-24T09:21:09.582Z,101650.35
2018-12-24T09:23:42.083Z,101656.48
2018-12-24T09:26:33.796Z,101657.66
2018-12-24T09:29:17.742Z,101656.61
2018-12-24T09:32:09.104Z,101660.08
2018-12-24T09:34:53.428Z,101666.59
2018-12-24T09:37:44.787Z,101663.55
2018-12-24T09:40:28.981Z,101674.95
2018-12-24T09:43:20.322Z,101683.91
2018-12-24T09:46:04.327Z,101693.04
2018-12-24T09:48:55.696Z,101697.24
2018-12-24T09:51:40.147Z,101699.61
2018-12-24T09:54:24.190Z,101700.42
2018-12-24T09:57:17.737Z,101700.67
2018-12-24T10:00:04.345Z,101711.47
2018-12-24T10:03:28.550Z,101717.48
2018-12-24T10:06:26.854Z,101723.31
2018-12-24T10:09:11.963Z,101725.58
2018-12-24T10:12:03.368Z,101730.03
2018-12-24T10:14:46.885Z,101731.98
2018-12-24T10:17:38.317Z,101733.41
2018-12-24T10:20:21.510Z,101739.03
2018-12-24T10:23:04.088Z,101723.41
2018-12-24T10:25:48.434Z,101725.80
2018-12-24T10:28:40.869Z,101732.52
2018-12-24T10:31:24.818Z,101727.24
2018-12-24T10:34:16.313Z,101723.31
2018-12-24T10:37:01.865Z,101729.64
2018-12-24T10:39:53.218Z,101736.02
2018-12-24T10:42:37.386Z,101737.63
2018-12-24T10:45:28.782Z,101746.52
2018-12-24T10:48:12.581Z,101753.06
2018-12-24T10:51:03.924Z,101756.31
2018-12-24T10:53:47.967Z,101756.29
2018-12-24T10:56:40.010Z,101758.36
2018-12-24T10:59:44.739Z,101761.96
2018-12-24T11:02:36.174Z,101764.72
2018-12-24T11:05:19.696Z,101765.17
2018-12-24T11:08:11.064Z,101761.69
2018-12-24T11:10:54.790Z,101763.32
2018-12-24T11:13:39.675Z,101766.63
2018-12-24T11:16:31.222Z,101766.64
2018-12-24T11:19:14.919Z,101770.41
2018-12-24T11:22:06.255Z,101763.80
2018-12-24T11:24:49.942Z,101762.55
2018-12-24T11:27:41.332Z,101763.59
2018-12-24T11:30:25.639Z,101765.52
2018-12-24T11:33:17.079Z,101770.47
2018-12-24T11:36:00.472Z,101767.81
2018-12-24T11:38:43.593Z,101771.55
2018-12-24T11:41:27.133Z,101777.04
2018-12-24T11:44:18.567Z,101770.67
2018-12-24T11:47:02.736Z,101772.11
2018-12-24T11:49:54.155Z,101769.16
2018-12-24T11:52:38.752Z,101770.17
2018-12-24T11:55:22.891Z,101777.38
2018-12-24T11:58:16.795Z,101779.52
2018-12-24T12:01:21.264Z,101778.97
2018-12-24T12:04:12.665Z,101775.38
2018-12-24T12:06:56.998Z,101782.71
2018-12-24T12:09:48.465Z,101790.38
2018-12-24T12:12:32.895Z,101787.33
2018-12-24T12:15:16.769Z,101795.28
2018-12-24T12:18:08.179Z,101799.94
2018-12-24T12:20:52.690Z,101804.03
2018-12-24T12:23:44.207Z,101804.36
2018-12-24T12:26:35.613Z,101801.94
2018-12-24T12:29:19.302Z,101808.50
2018-12-24T12:32:11.001Z,101811.06
2018-12-24T12:35:02.694Z,101816.90
2018-12-24T12:37:54.065Z,101813.67
2018-12-24T12:40:38.566Z,101818.37
2018-12-24T12:43:29.944Z,101824.02
2018-12-24T12:46:13.831Z,101829.17
2018-12-24T12:49:05.191Z,101832.06
2018-12-24T12:51:49.575Z,101829.37
2018-12-24T12:54:40.984Z,101826.02
2018-12-24T12:57:24.532Z,101823.17
2018-12-24T13:00:15.919Z,101822.22
2018-12-24T13:03:00.154Z,101822.96
2018-12-24T13:05:51.536Z,101834.34
2018-12-24T13:08:35.708Z,101835.90
2018-12-24T13:11:27.101Z,101829.03
2018-12-24T13:14:10.499Z,101832.03
2018-12-24T13:16:54.407Z,101834.20
2018-12-24T13:19:45.786Z,101836.98
2018-12-24T13:22:29.876Z,101841.89
2018-12-24T13:28:24.069Z,101840.30
2018-12-24T13:31:15.404Z,101839.72
2018-12-24T13:33:58.896Z,101851.12
2018-12-24T13:36:50.299Z,101864.52
2018-12-24T13:39:34.710Z,101870.06
2018-12-24T13:42:26.161Z,101873.31
2018-12-24T13:45:11.784Z,101871.95
2018-12-24T13:48:03.164Z,101874.36
2018-12-24T13:50:47.713Z,101884.37
2018-12-24T13:53:42.013Z,101891.52
2018-12-24T13:56:43.665Z,101896.03
2018-12-24T13:59:35.051Z,101913.23
2018-12-24T14:02:18.774Z,101908.94
2018-12-24T14:05:10.157Z,101910.20
2018-12-24T14:07:54.651Z,101917.49
2018-12-24T14:10:46.203Z,101913.65
2018-12-24T14:13:29.796Z,101909.05
2018-12-24T14:16:16.815Z,101920.46
2018-12-24T14:19:06.790Z,101933.22
2018-12-24T14:21:39.300Z,101935.02
2018-12-24T14:24:30.650Z,101939.28
2018-12-24T14:27:14.146Z,101949.33
2018-12-24T14:30:06.602Z,101955.86
2018-12-24T14:32:50.192Z,101962.91
2018-12-24T14:35:41.623Z,101965.01
2018-12-24T14:38:26.025Z,101971.98
2018-12-24T14:41:17.406Z,101973.63
2018-12-24T14:44:01.209Z,101968.34
2018-12-24T14:46:52.606Z,101977.35
2018-12-24T14:49:25.008Z,101982.33
2018-12-24T14:52:16.387Z,101984.19
2018-12-24T14:55:00.543Z,101991.35
2018-12-24T14:57:51.953Z,101995.41
2018-12-24T15:00:36.145Z,101998.14
2018-12-24T15:03:27.614Z,101997.41
2018-12-24T15:06:18.947Z,102008.42
2018-12-24T15:09:10.350Z,102012.36
2018-12-24T15:11:53.852Z,102013.26
2018-12-24T15:14:45.169Z,102011.55
2018-12-24T15:17:48.533Z,102021.70
2018-12-24T15:20:39.890Z,102025.24
2018-12-24T15:23:23.956Z,102027.03
2018-12-24T15:26:15.283Z,102028.84
2018-12-24T15:28:58.684Z,102030.59
2018-12-24T15:31:50.010Z,102021.87
2018-12-24T15:34:33.877Z,102010.97
2018-12-24T15:37:25.206Z,102008.80
2018-12-24T15:40:09.212Z,101997.03
2018-12-24T15:43:00.507Z,101995.29
2018-12-24T15:45:43.970Z,102007.06
2018-12-24T15:48:35.288Z,102011.39
2018-12-24T15:51:18.962Z,102011.78
2018-12-24T15:54:10.333Z,102011.77
2018-12-24T15:57:01.839Z,102016.98
2018-12-24T15:59:46.212Z,102019.98
2018-12-24T16:02:37.561Z,102018.67
2018-12-24T16:05:21.992Z,102013.86
2018-12-24T16:08:13.408Z,102015.12
2018-12-24T16:10:57.142Z,102007.70
2018-12-24T16:13:48.516Z,102017.25
2018-12-24T16:16:32.662Z,102016.32
2018-12-24T16:19:24.011Z,102013.27
2018-12-24T16:22:07.725Z,102019.31
2018-12-24T16:24:59.081Z,102027.13
2018-12-24T16:27:43.367Z,102033.63
2018-12-24T16:30:34.727Z,102044.92
2018-12-24T16:33:18.933Z,102045.31
2018-12-24T16:36:10.312Z,102054.84
2018-12-24T16:38:54.750Z,102056.54
2018-12-24T16:41:46.072Z,102055.20
2018-12-24T16:44:49.184Z,102048.59
2018-12-24T16:47:21.616Z,102045.48
2018-12-24T16:50:12.939Z,102061.98
2018-12-24T16:53:04.272Z,102058.92
2018-12-24T16:55:47.869Z,102064.10
2018-12-24T16:58:39.237Z,102064.94
2018-12-24T17:01:22.801Z,102060.48
2018-12-24T17:04:14.178Z,102065.64
2018-12-24T17:06:58.241Z,102087.81
2018-12-24T17:09:49.595Z,102073.47
2018-12-24T17:12:33.316Z,102068.20
2018-12-24T17:15:24.704Z,102078.59
2018-12-24T17:18:08.718Z,102070.77
2018-12-24T17:21:00.091Z,102081.62
2018-12-24T17:23:43.632Z,102080.77
2018-12-24T17:26:35.000Z,102082.09
2018-12-24T17:29:18.767Z,102072.95
2018-12-24T17:32:10.126Z,102070.34
2018-12-24T17:34:53.792Z,102073.42
2018-12-24T17:37:45.143Z,102076.07
2018-12-24T17:40:28.941Z,102069.14
2018-12-24T17:43:20.302Z,102069.61
2018-12-24T17:46:04.405Z,102073.56
2018-12-24T17:48:55.795Z,102080.87
2018-12-24T17:51:40.250Z,102075.66
2018-12-24T17:54:50.530Z,102065.64
2018-12-24T17:57:34.061Z,102078.68
2018-12-24T18:00:25.447Z,102092.61
2018-12-24T18:03:09.149Z,102076.55
2018-12-24T18:06:00.526Z,102090.84
2018-12-24T18:08:44.197Z,102113.02
2018-12-24T18:11:35.529Z,102120.89
2018-12-24T18:14:19.450Z,102132.22
2018-12-24T18:17:02.835Z,102124.44
2018-12-24T18:19:54.163Z,102130.55
2018-12-24T18:22:38.185Z,102128.39
2018-12-24T18:25:29.584Z,102132.26
2018-12-24T18:28:13.232Z,102141.81
2018-12-24T18:31:04.581Z,102136.59
2018-12-24T18:33:48.663Z,102145.73
2018-12-24T18:36:40.037Z,102153.59
2018-12-24T18:39:24.207Z,102154.48
2018-12-24T18:42:15.553Z,102162.37
2018-12-24T18:44:59.986Z,102162.47
2018-12-24T18:47:51.320Z,102156.03
2018-12-24T18:50:34.914Z,102156.97
2018-12-24T18:53:26.279Z,102164.80
2018-12-24T18:56:10.140Z,102174.86
2018-12-24T18:59:01.523Z,102171.83
2018-12-24T19:01:45.329Z,102167.50
2018-12-24T19:04:40.192Z,102170.53
2018-12-24T19:07:24.481Z,102178.36
2018-12-24T19:10:15.845Z,102174.48
2018-12-24T19:12:59.244Z,102174.11
2018-12-24T19:15:50.591Z,102173.64
2018-12-24T19:18:33.962Z,102169.73
2018-12-24T19:21:25.302Z,102171.55
2018-12-24T19:24:08.989Z,102168.47
2018-12-24T19:27:00.327Z,102176.72
2018-12-24T19:29:44.402Z,102173.23
2018-12-24T19:32:35.744Z,102166.78
2018-12-24T19:35:19.308Z,102175.92
2018-12-24T19:38:10.682Z,102172.38
2018-12-24T19:40:54.379Z,102178.95
2018-12-24T19:43:45.715Z,102182.45
2018-12-24T19:46:29.480Z,102182.53
2018-12-24T19:49:20.848Z,102186.02
2018-12-24T19:52:04.424Z,102193.44
2018-12-24T19:54:55.852Z,102198.20
2018-12-24T19:57:39.929Z,102199.51
2018-12-24T20:00:31.311Z,102192.13
2018-12-24T20:03:14.779Z,102198.23
2018-12-24T20:06:06.153Z,102193.83
2018-12-24T20:08:49.609Z,102195.55
2018-12-24T20:11:40.962Z,102195.67
2018-12-24T20:14:25.188Z,102212.56
2018-12-24T20:17:16.550Z,102219.52
2018-12-24T20:20:00.578Z,102225.20
2018-12-24T20:22:51.947Z,102226.94
2018-12-24T20:25:35.561Z,102225.63
2018-12-24T20:28:45.826Z,102227.82
2018-12-24T20:31:30.191Z,102230.94
2018-12-24T20:34:21.507Z,102233.97
2018-12-24T20:37:05.302Z,102241.80
2018-12-24T20:39:56.632Z,102235.27
2018-12-24T20:42:40.703Z,102230.52
2018-12-24T20:45:32.055Z,102226.63
2018-12-24T20:48:15.482Z,102223.09
2018-12-24T20:51:06.842Z,102220.91
2018-12-24T20:53:50.713Z,102226.13
2018-12-24T20:56:34.541Z,102228.74
2018-12-24T20:59:18.874Z,102228.20
2018-12-24T21:02:22.003Z,102235.66
2018-12-24T21:05:32.701Z,102234.30
2018-12-24T21:08:35.417Z,102223.81
2018-12-24T21:11:39.260Z,102218.12
2018-12-24T21:14:49.956Z,102231.19
2018-12-24T21:17:53.449Z,102227.78
2018-12-24T21:21:04.136Z,102213.41
2018-12-24T21:24:07.077Z,102223.86
2018-12-24T21:27:17.830Z,102213.41
2018-12-24T21:30:20.923Z,102209.95
2018-12-24T21:33:23.746Z,102220.32
2018-12-24T21:36:34.456Z,102213.45
2018-12-24T21:39:38.253Z,102215.18
2018-12-24T21:42:54.586Z,102213.88
2018-12-24T21:45:53.887Z,102214.76
2018-12-24T21:48:57.661Z,102215.68
2018-12-24T21:52:08.358Z,102216.95
2018-12-24T21:55:11.184Z,102215.64
2018-12-24T21:58:14.236Z,102211.34
2018-12-24T22:01:18.290Z,102213.07
2018-12-24T22:04:21.791Z,102217.83
2018-12-24T22:07:24.722Z,102222.22
2018-12-24T22:10:35.400Z,102221.83
2018-12-24T22:13:38.966Z,102226.63
2018-12-24T22:16:49.645Z,102234.89
2018-12-24T22:19:52.631Z,102235.73
2018-12-24T22:22:55.783Z,102230.09
2018-12-24T22:25:58.801Z,102231.40
2018-12-24T22:29:02.557Z,102226.67
2018-12-24T22:32:13.328Z,102227.13
2018-12-24T22:35:17.060Z,102217.61
2018-12-24T22:38:27.736Z,102221.91
2018-12-24T22:41:30.603Z,102225.80
2018-12-24T22:44:41.296Z,102228.86
2018-12-24T22:47:44.828Z,102230.63
2018-12-24T22:50:55.539Z,102216.30
2018-12-24T22:53:58.714Z,102210.64
2018-12-24T22:57:02.385Z,102206.77
2018-12-24T23:00:07.365Z,102204.58
2018-12-24T23:03:18.217Z,102200.13
2018-12-24T23:06:21.884Z,102198.01
2018-12-24T23:09:32.483Z,102196.34
2018-12-24T23:12:35.358Z,102196.70
2018-12-24T23:15:46.033Z,102196.24
2018-12-24T23:18:49.861Z,102193.63
2018-12-24T23:21:52.803Z,102183.66
2018-12-24T23:25:03.459Z,102191.86
2018-12-24T23:28:07.172Z,102192.21
2018-12-24T23:34:45.112Z,102186.56
2018-12-24T23:37:48.325Z,102186.95
2018-12-24T23:40:51.901Z,102184.80
2018-12-24T23:44:02.610Z,102186.21
2018-12-24T23:47:05.955Z,102191.36
2018-12-24T23:49:57.721Z,102198.28
2018-12-24T23:53:01.051Z,102198.31
2018-12-24T23:56:11.761Z,102191.36
2018-12-24T23:59:14.592Z,102188.33
